KCHO/CHO METAR and TAF weather

Enter ICAO airport designator
Station Type Date Time Source
KCHO METAR 2021/06/25 02:53 UTC NOAA

KCHO 250253Z 00000KT 10SM CLR 17/12 A3031 RMK AO2 SLP259 T01720122 53014


Station Type Date Time Source
KCHO Decoded METAR 2021/06/25 02:53 UTC NOAA

CHARLOTTESVILLE-ALBEMARLE, VA, United States (KCHO) 38-08N 078-27W 192M
Jun 24, 2021 - 10:53 PM EDT / 2021.06.25 0253 UTC
Wind: Calm:0
Visibility: 10 mile(s):0
Sky conditions: clear
Temperature: 63.0 F (17.2 C)
Dew Point: 54.0 F (12.2 C)
Relative Humidity: 72%
Pressure (altimeter): 30.31 in. Hg (1026 hPa)
Pressure tendency: 0.04 inches (1.4 hPa) higher than three hours ago
ob: KCHO 250253Z 00000KT 10SM CLR 17/12 A3031 RMK AO2 SLP259 T01720122 53014
cycle: 3

Station Type Date Time Source
KCHO TAF 2021/06/24 18:22 UTC NOAA

TAF KCHO 241720Z 2418/2518 16006KT P6SM FEW050 FEW250
FM250000 12003KT P6SM FEW250
FM251400 17006KT P6SM FEW050 FEW250

Example: see airport list